Westbend, Wisconsin
Current Conditions -  °F | °C
As of 12:10 AM on Monday 26 Jan 2015 (Local Time) from KETB Reporting Station
Scattered Clouds Scattered Clouds  
Wind Chill: 14°   Ceiling: Unl
Heat Index: 14°   Visibility: 10mi
Dew Point:   Wind: 0mph
Humidity: 79%   Direction: NA
Pressure: 30.01"   Gusts: NA
Location:  43.419°N, 88.1677°W
Report Text: KETB 260610Z AUTO 00000KT 10SM SCT110 M10/M13 A3001 RMK AO2
Loading
Personal Weather Stations






























Interactive Weather Map New forecast layout! Learn more

10-Day Weather Forecast

Advertisements
Track Severe Weather on mobile